Sligo, Louisiana
Current Conditions -  °F | °C
As of 7:58 AM on Saturday 22 Nov 2014 (Local Time) from KBAD Reporting Station
Overcast Overcast  
Wind Chill: 58°   Ceiling: 3900
Heat Index: 58°   Visibility: 10mi
Dew Point: 51°   Wind: 13mph
Humidity: 78%   Direction: 140°SE
Pressure: 30.16"   Gusts: NA
Location:  32.5391°N, 93.5257°W
Report Text: KBAD 221358Z AUTO 14011KT 10SM OVC039 14/11 A3016 RMK AO2 SLP216 T01430106
Loading
Personal Weather Stations






























Interactive Weather Map New forecast layout! Learn more

10-Day Weather Forecast

Advertisements
Track Severe Weather on mobile